createdAt,value
2023-02-12T00:03:13.602Z,30.67
2023-02-12T00:07:15.441Z,31.73
2023-02-12T00:11:20.092Z,33.70
2023-02-12T00:15:22.074Z,35.70
2023-02-12T00:19:24.218Z,33.90
2023-02-12T00:23:26.105Z,33.23
2023-02-12T00:27:28.080Z,32.97
2023-02-12T00:31:32.781Z,39.33
2023-02-12T00:35:34.708Z,36.33
2023-02-12T00:39:38.120Z,36.57
2023-02-12T00:43:39.974Z,37.20
2023-02-12T00:47:44.997Z,37.73
2023-02-12T00:51:50.677Z,37.27
2023-02-12T00:55:52.762Z,38.77
2023-02-12T00:59:54.887Z,36.83
2023-02-12T01:03:56.693Z,34.77
2023-02-12T01:07:58.512Z,34.37
2023-02-12T01:12:00.343Z,34.37
2023-02-12T01:16:14.302Z,31.57
2023-02-12T01:20:17.699Z,33.87
2023-02-12T01:24:19.581Z,34.53
2023-02-12T01:28:21.394Z,33.50
2023-02-12T01:32:23.518Z,39.17
2023-02-12T01:36:26.358Z,30.17
2023-02-12T01:40:28.349Z,32.73
2023-02-12T01:44:31.138Z,37.13
2023-02-12T01:48:44.850Z,33.30
2023-02-12T01:52:50.530Z,36.17
2023-02-12T01:56:52.419Z,36.10
2023-02-12T02:00:54.162Z,34.80
2023-02-12T02:05:01.852Z,30.93
2023-02-12T02:09:04.127Z,36.47
2023-02-12T02:13:24.331Z,33.20
2023-02-12T02:18:01.409Z,34.43
2023-02-12T02:22:30.276Z,34.87
2023-02-12T02:26:51.028Z,37.07
2023-02-12T02:31:07.285Z,37.87
2023-02-12T02:35:22.169Z,33.73
2023-02-12T02:39:40.892Z,37.67
2023-02-12T02:43:51.237Z,36.00
2023-02-12T02:48:32.824Z,36.30
2023-02-12T02:52:39.997Z,33.80
2023-02-12T02:56:44.207Z,34.43
2023-02-12T03:01:19.740Z,35.37
2023-02-12T03:05:33.038Z,33.13
2023-02-12T03:09:59.614Z,31.83
2023-02-12T03:14:12.001Z,30.33
2023-02-12T03:18:20.169Z,33.20
2023-02-12T03:22:26.837Z,29.10
2023-02-12T03:27:02.528Z,30.03
2023-02-12T03:31:40.594Z,32.60
2023-02-12T03:35:48.155Z,30.13
2023-02-12T03:39:56.270Z,36.23
2023-02-12T03:44:23.147Z,32.00
2023-02-12T03:48:54.253Z,33.43
2023-02-12T03:52:56.045Z,32.30
2023-02-12T03:57:14.161Z,37.17
2023-02-12T04:01:16.234Z,35.03
2023-02-12T04:05:27.252Z,41.37
2023-02-12T04:09:29.408Z,40.53
2023-02-12T04:13:51.004Z,40.07
2023-02-12T04:18:20.673Z,39.03
2023-02-12T04:22:54.043Z,42.87
2023-02-12T04:27:02.357Z,41.47
2023-02-12T04:31:29.955Z,39.40
2023-02-12T04:35:40.294Z,37.70
2023-02-12T04:39:42.345Z,38.20
2023-02-12T04:43:44.216Z,33.17
2023-02-12T04:47:46.889Z,35.07
2023-02-12T04:51:49.101Z,36.33
2023-02-12T04:55:50.941Z,32.60
2023-02-12T04:59:52.850Z,36.80
2023-02-12T05:03:54.785Z,37.47
2023-02-12T05:07:56.776Z,35.27
2023-02-12T05:11:58.612Z,32.57
2023-02-12T05:16:00.750Z,39.30
2023-02-12T05:20:02.621Z,35.77
2023-02-12T05:24:04.804Z,35.90
2023-02-12T05:28:06.674Z,36.37
2023-02-12T05:32:08.977Z,37.33
2023-02-12T05:36:18.388Z,33.87
2023-02-12T05:40:20.251Z,37.03
2023-02-12T05:44:22.123Z,37.57
2023-02-12T05:48:23.957Z,34.60
2023-02-12T05:52:25.748Z,32.47
2023-02-12T05:56:31.428Z,36.47
2023-02-12T06:00:33.301Z,34.10
2023-02-12T06:04:35.201Z,31.27
2023-02-12T06:08:37.340Z,32.03
2023-02-12T06:12:39.245Z,27.83
2023-02-12T06:16:44.110Z,31.03
2023-02-12T06:20:57.003Z,27.53
2023-02-12T06:25:27.930Z,29.37
2023-02-12T06:29:29.989Z,29.70
2023-02-12T06:33:33.129Z,27.93
2023-02-12T06:37:37.169Z,29.17
2023-02-12T06:41:39.398Z,32.27
2023-02-12T06:45:44.424Z,27.00
2023-02-12T06:49:48.784Z,26.03
2023-02-12T06:53:56.559Z,30.27
2023-02-12T06:57:58.465Z,28.07
2023-02-12T07:02:07.785Z,27.30
2023-02-12T07:06:10.043Z,28.00
2023-02-12T07:10:11.928Z,32.77
2023-02-12T07:14:15.662Z,26.07
2023-02-12T07:18:17.659Z,26.63
2023-02-12T07:22:20.821Z,24.80
2023-02-12T07:26:22.800Z,29.10
2023-02-12T07:30:24.734Z,27.67
2023-02-12T07:34:26.822Z,28.43
2023-02-12T07:38:29.203Z,25.80
2023-02-12T07:42:31.189Z,25.37
2023-02-12T07:47:03.806Z,26.33
2023-02-12T07:51:11.085Z,24.07
2023-02-12T07:55:13.042Z,22.97
2023-02-12T07:59:17.081Z,26.27
2023-02-12T08:03:18.905Z,25.07
2023-02-12T08:07:53.949Z,24.10
2023-02-12T08:12:06.706Z,22.27
2023-02-12T08:16:17.019Z,23.93
2023-02-12T08:20:31.766Z,22.77
2023-02-12T08:24:33.693Z,25.27
2023-02-12T08:28:36.304Z,23.37
2023-02-12T08:32:38.780Z,20.63
2023-02-12T08:36:40.725Z,23.10
2023-02-12T08:40:48.507Z,24.03
2023-02-12T08:44:52.162Z,27.50
2023-02-12T08:49:10.116Z,23.70
2023-02-12T08:53:12.041Z,23.40
2023-02-12T08:57:13.957Z,21.00
2023-02-12T09:01:23.194Z,23.57
2023-02-12T09:05:25.222Z,21.50
2023-02-12T09:09:27.274Z,24.03
2023-02-12T09:13:32.232Z,19.57
2023-02-12T09:17:34.286Z,22.30
2023-02-12T09:21:36.148Z,18.30
2023-02-12T09:25:45.435Z,21.50
2023-02-12T09:29:48.424Z,18.97
2023-02-12T09:33:53.382Z,16.93
2023-02-12T09:37:57.016Z,19.33
2023-02-12T09:42:35.104Z,16.20
2023-02-12T09:46:48.486Z,14.83
2023-02-12T09:50:55.622Z,14.97
2023-02-12T09:54:57.577Z,13.33
2023-02-12T09:59:02.853Z,15.23
2023-02-12T10:03:05.974Z,12.23
2023-02-12T10:07:31.226Z,11.80
2023-02-12T10:12:04.651Z,13.60
2023-02-12T10:16:30.382Z,12.00
2023-02-12T10:20:46.698Z,12.67
2023-02-12T10:25:09.343Z,10.33
2023-02-12T10:29:23.427Z,13.83
2023-02-12T10:33:47.059Z,11.80
2023-02-12T10:38:00.699Z,11.87
2023-02-12T10:42:16.453Z,14.27
2023-02-12T10:46:18.417Z,12.13
2023-02-12T10:50:40.727Z,14.00
2023-02-12T10:54:49.810Z,12.83
2023-02-12T10:59:08.169Z,12.70
2023-02-12T11:03:59.055Z,11.77
2023-02-12T11:08:04.659Z,14.17
2023-02-12T11:12:31.267Z,11.70
2023-02-12T11:16:59.600Z,10.07
2023-02-12T11:21:16.714Z,10.63
2023-02-12T11:25:19.166Z,10.77
2023-02-12T11:29:36.737Z,8.20
2023-02-12T11:33:39.114Z,12.27
2023-02-12T11:37:42.689Z,9.03
2023-02-12T11:41:46.927Z,9.23
2023-02-12T11:45:50.204Z,8.67
2023-02-12T11:50:24.928Z,9.83
2023-02-12T11:54:33.050Z,11.10
2023-02-12T11:58:40.597Z,10.53
2023-02-12T12:03:17.091Z,11.30
2023-02-12T12:07:26.385Z,7.00
2023-02-12T12:11:55.024Z,9.77
2023-02-12T12:16:58.384Z,10.17
2023-02-12T12:21:28.495Z,10.33
2023-02-12T12:25:38.207Z,13.20
2023-02-12T12:29:55.507Z,10.73
2023-02-12T12:34:19.383Z,9.53
2023-02-12T12:38:52.613Z,13.47
2023-02-12T12:43:20.882Z,10.77
2023-02-12T12:48:05.219Z,13.70
2023-02-12T12:52:18.105Z,12.00
2023-02-12T12:56:37.403Z,12.63
2023-02-12T13:01:21.251Z,13.27
2023-02-12T13:06:04.544Z,14.80
2023-02-12T13:10:25.589Z,14.73
2023-02-12T13:15:00.637Z,14.83
2023-02-12T13:19:32.936Z,10.17
2023-02-12T13:24:00.558Z,12.23
2023-02-12T13:28:04.521Z,10.13
2023-02-12T13:32:34.771Z,13.80
2023-02-12T13:36:37.269Z,12.00
2023-02-12T13:40:40.659Z,12.43
2023-02-12T13:45:27.800Z,8.33
2023-02-12T13:49:54.439Z,9.70
2023-02-12T13:54:38.031Z,9.27
2023-02-12T13:58:44.608Z,9.47
2023-02-12T14:02:52.637Z,9.60
2023-02-12T14:07:18.542Z,7.00
2023-02-12T14:11:26.712Z,8.27
2023-02-12T14:15:34.622Z,7.90
2023-02-12T14:19:39.003Z,8.97
2023-02-12T14:23:46.186Z,7.00
2023-02-12T14:27:54.539Z,9.37
2023-02-12T14:31:56.651Z,6.87
2023-02-12T14:36:18.155Z,6.53
2023-02-12T14:40:36.498Z,8.30
2023-02-12T14:44:57.481Z,6.97
2023-02-12T14:49:05.938Z,7.57
2023-02-12T14:53:27.132Z,7.73
2023-02-12T14:57:40.510Z,9.07
2023-02-12T15:01:42.483Z,7.17
2023-02-12T15:06:03.247Z,7.17
2023-02-12T15:10:17.709Z,8.50
2023-02-12T15:14:32.014Z,9.33
2023-02-12T15:18:55.715Z,8.70
2023-02-12T15:22:57.565Z,9.60
2023-02-12T15:27:01.480Z,9.17
2023-02-12T15:31:05.064Z,12.00
2023-02-12T15:35:07.527Z,11.50
2023-02-12T15:39:09.360Z,10.50
2023-02-12T15:43:18.144Z,12.13
2023-02-12T15:47:24.742Z,11.53
2023-02-12T15:51:38.775Z,10.43
2023-02-12T15:55:44.508Z,10.93
2023-02-12T15:59:54.369Z,12.53
2023-02-12T16:03:58.446Z,13.93
2023-02-12T16:08:01.233Z,13.70
2023-02-12T16:12:05.741Z,12.67
2023-02-12T16:16:30.017Z,13.87
2023-02-12T16:20:32.275Z,14.53
2023-02-12T16:24:36.920Z,13.27
2023-02-12T16:28:38.954Z,11.53
2023-02-12T16:32:42.899Z,12.60
2023-02-12T16:36:47.796Z,13.23
2023-02-12T16:41:19.445Z,12.33
2023-02-12T16:45:27.519Z,11.90
2023-02-12T16:49:30.346Z,11.97
2023-02-12T16:53:35.031Z,14.93
2023-02-12T16:57:36.977Z,11.57
2023-02-12T17:01:38.905Z,11.40
2023-02-12T17:05:46.012Z,10.97
2023-02-12T17:09:48.234Z,10.67
2023-02-12T17:13:52.487Z,11.70
2023-02-12T17:17:54.352Z,12.43
2023-02-12T17:21:59.586Z,12.27
2023-02-12T17:26:01.507Z,12.33
2023-02-12T17:30:04.889Z,11.00
2023-02-12T17:34:06.957Z,10.43
2023-02-12T17:38:08.831Z,12.77
2023-02-12T17:42:11.632Z,11.37
2023-02-12T17:46:20.283Z,11.60
2023-02-12T17:50:24.998Z,13.60
2023-02-12T17:54:26.962Z,14.33
2023-02-12T17:58:28.921Z,12.13
2023-02-12T18:02:30.906Z,15.23
2023-02-12T18:06:49.528Z,15.10
2023-02-12T18:11:05.039Z,17.10
2023-02-12T18:15:08.387Z,19.17
2023-02-12T18:19:10.231Z,15.47
2023-02-12T18:23:12.032Z,15.50
2023-02-12T18:27:14.221Z,17.17
2023-02-12T18:31:17.132Z,16.07
2023-02-12T18:35:31.569Z,15.83
2023-02-12T18:39:33.542Z,15.60
2023-02-12T18:43:39.758Z,15.47
2023-02-12T18:47:42.175Z,15.87
2023-02-12T18:51:47.785Z,14.67
2023-02-12T18:55:52.598Z,17.33
2023-02-12T18:59:54.916Z,14.20
2023-02-12T19:04:00.667Z,16.07
2023-02-12T19:08:03.143Z,15.57
2023-02-12T19:12:07.028Z,19.27
2023-02-12T19:16:14.976Z,21.87
2023-02-12T19:20:16.975Z,20.60
2023-02-12T19:24:18.994Z,17.83
2023-02-12T19:28:26.152Z,18.33
2023-02-12T19:32:28.133Z,20.77
2023-02-12T19:36:32.806Z,16.70
2023-02-12T19:40:34.772Z,17.13
2023-02-12T19:44:39.468Z,20.40
2023-02-12T19:48:41.485Z,18.47
2023-02-12T19:52:43.464Z,17.30
2023-02-12T19:56:45.722Z,16.30
2023-02-12T20:00:53.674Z,18.63
2023-02-12T20:04:55.877Z,14.63
2023-02-12T20:08:57.844Z,20.33
2023-02-12T20:13:00.009Z,21.87
2023-02-12T20:17:01.847Z,18.07
2023-02-12T20:21:19.244Z,18.73
2023-02-12T20:25:21.253Z,15.97
2023-02-12T20:29:23.370Z,22.07
2023-02-12T20:33:26.272Z,21.30
2023-02-12T20:37:28.147Z,18.90
2023-02-12T20:41:30.177Z,18.47
2023-02-12T20:45:31.997Z,16.60
2023-02-12T20:49:34.409Z,18.27
2023-02-12T20:53:39.644Z,21.77
2023-02-12T20:57:41.587Z,21.13
2023-02-12T21:01:43.526Z,19.20
2023-02-12T21:05:46.291Z,21.57
2023-02-12T21:09:50.258Z,19.87
2023-02-12T21:14:02.431Z,22.40
2023-02-12T21:18:05.287Z,24.50
2023-02-12T21:22:07.197Z,20.33
2023-02-12T21:26:17.210Z,19.47
2023-02-12T21:30:21.752Z,21.73
2023-02-12T21:34:23.786Z,19.40
2023-02-12T21:38:25.609Z,22.47
2023-02-12T21:42:28.771Z,25.00
2023-02-12T21:46:34.335Z,22.60
2023-02-12T21:50:36.267Z,18.57
2023-02-12T21:54:38.059Z,20.47
2023-02-12T21:58:40.791Z,21.73
2023-02-12T22:02:42.696Z,19.63
2023-02-12T22:06:48.195Z,20.17
2023-02-12T22:10:50.096Z,20.43
2023-02-12T22:14:51.926Z,22.77
2023-02-12T22:18:56.125Z,17.93
2023-02-12T22:22:58.417Z,18.43
2023-02-12T22:27:00.951Z,17.53
2023-02-12T22:31:06.888Z,19.87
2023-02-12T22:35:09.183Z,17.43
2023-02-12T22:39:13.000Z,18.60
2023-02-12T22:43:14.866Z,18.07
2023-02-12T22:47:16.644Z,19.10
2023-02-12T22:51:31.810Z,20.17
2023-02-12T22:55:36.511Z,21.50
2023-02-12T22:59:38.489Z,23.40
2023-02-12T23:03:44.071Z,21.90
2023-02-12T23:07:45.895Z,25.70
2023-02-12T23:11:48.240Z,23.23
2023-02-12T23:15:50.141Z,25.17
2023-02-12T23:19:51.920Z,22.93
2023-02-12T23:23:53.915Z,26.17
2023-02-12T23:27:55.709Z,22.43
2023-02-12T23:31:57.577Z,16.57
2023-02-12T23:35:59.676Z,17.83
2023-02-12T23:40:01.480Z,14.10
2023-02-12T23:44:03.812Z,15.27
2023-02-12T23:48:05.918Z,16.07
2023-02-12T23:52:07.723Z,14.17
2023-02-12T23:56:09.591Z,18.00
